sensor_id;sensor_type;location;lat;lon;timestamp;pressure;altitude;pressure_sealevel;temperature;humidity
20889;BME280;10604;51.976;7.594;2023-07-31T00:02:11;100241.13;;;23.31;66.07
20889;BME280;10604;51.976;7.594;2023-07-31T00:04:37;100241.13;;;23.22;65.44
20889;BME280;10604;51.976;7.594;2023-07-31T00:07:02;100250.25;;;22.90;65.77
20889;BME280;10604;51.976;7.594;2023-07-31T00:09:29;100240.38;;;23.10;64.20
20889;BME280;10604;51.976;7.594;2023-07-31T00:11:54;100242.63;;;22.65;64.88
20889;BME280;10604;51.976;7.594;2023-07-31T00:14:19;100245.34;;;23.15;63.22
20889;BME280;10604;51.976;7.594;2023-07-31T00:16:45;100247.25;;;22.33;64.13
20889;BME280;10604;51.976;7.594;2023-07-31T00:19:10;100244.13;;;22.27;64.19
20889;BME280;10604;51.976;7.594;2023-07-31T00:21:35;100228.00;;;22.88;62.92
20889;BME280;10604;51.976;7.594;2023-07-31T00:24:00;100231.75;;;23.07;62.46
20889;BME280;10604;51.976;7.594;2023-07-31T00:26:26;100237.47;;;22.83;62.77
20889;BME280;10604;51.976;7.594;2023-07-31T00:28:51;100229.75;;;22.99;62.74
20889;BME280;10604;51.976;7.594;2023-07-31T00:31:16;100232.00;;;23.03;62.74
20889;BME280;10604;51.976;7.594;2023-07-31T00:33:41;100230.63;;;23.19;61.94
20889;BME280;10604;51.976;7.594;2023-07-31T00:36:07;100228.72;;;22.60;63.56
20889;BME280;10604;51.976;7.594;2023-07-31T00:38:32;100223.06;;;23.03;63.18
20889;BME280;10604;51.976;7.594;2023-07-31T00:40:57;100221.25;;;23.03;63.21
20889;BME280;10604;51.976;7.594;2023-07-31T00:43:23;100215.28;;;23.10;63.45
20889;BME280;10604;51.976;7.594;2023-07-31T00:45:48;100211.94;;;23.36;62.24
20889;BME280;10604;51.976;7.594;2023-07-31T00:48:13;100218.50;;;23.53;62.37
20889;BME280;10604;51.976;7.594;2023-07-31T00:50:39;100208.38;;;23.17;62.73
20889;BME280;10604;51.976;7.594;2023-07-31T00:53:04;100212.97;;;22.76;63.91
20889;BME280;10604;51.976;7.594;2023-07-31T00:55:30;100210.44;;;22.84;63.91
20889;BME280;10604;51.976;7.594;2023-07-31T00:57:55;100210.22;;;23.26;62.76
20889;BME280;10604;51.976;7.594;2023-07-31T01:00:21;100210.81;;;23.39;62.92
20889;BME280;10604;51.976;7.594;2023-07-31T01:02:47;100204.28;;;23.32;62.88
20889;BME280;10604;51.976;7.594;2023-07-31T01:05:13;100206.53;;;23.08;63.40
20889;BME280;10604;51.976;7.594;2023-07-31T01:10:16;100202.72;;;22.70;64.73
20889;BME280;10604;51.976;7.594;2023-07-31T01:12:42;100201.44;;;23.24;63.82
20889;BME280;10604;51.976;7.594;2023-07-31T01:15:10;100194.34;;;22.94;64.12
20889;BME280;10604;51.976;7.594;2023-07-31T01:17:40;100196.91;;;23.24;63.25
20889;BME280;10604;51.976;7.594;2023-07-31T01:20:08;100186.97;;;23.06;64.24
20889;BME280;10604;51.976;7.594;2023-07-31T01:27:57;100196.69;;;23.66;62.30
20889;BME280;10604;51.976;7.594;2023-07-31T01:30:25;100185.47;;;23.80;61.74
20889;BME280;10604;51.976;7.594;2023-07-31T01:32:52;100190.41;;;23.46;62.25
20889;BME280;10604;51.976;7.594;2023-07-31T01:35:19;100183.88;;;23.20;63.05
20889;BME280;10604;51.976;7.594;2023-07-31T01:37:45;100193.97;;;23.75;62.33
20889;BME280;10604;51.976;7.594;2023-07-31T01:40:10;100183.78;;;24.16;61.02
20889;BME280;10604;51.976;7.594;2023-07-31T01:42:35;100179.63;;;23.85;61.67
20889;BME280;10604;51.976;7.594;2023-07-31T01:45:01;100175.03;;;24.14;60.97
20889;BME280;10604;51.976;7.594;2023-07-31T01:47:26;100174.59;;;24.09;60.86
20889;BME280;10604;51.976;7.594;2023-07-31T01:49:51;100169.16;;;23.53;62.36
20889;BME280;10604;51.976;7.594;2023-07-31T01:52:16;100167.41;;;24.00;61.32
20889;BME280;10604;51.976;7.594;2023-07-31T01:54:42;100162.00;;;24.00;61.20
20889;BME280;10604;51.976;7.594;2023-07-31T01:57:07;100159.47;;;23.89;61.81
20889;BME280;10604;51.976;7.594;2023-07-31T01:59:32;100155.63;;;24.01;60.76
20889;BME280;10604;51.976;7.594;2023-07-31T02:01:57;100156.88;;;24.06;60.46
20889;BME280;10604;51.976;7.594;2023-07-31T02:04:23;100143.44;;;24.43;60.38
20889;BME280;10604;51.976;7.594;2023-07-31T02:06:48;100154.06;;;24.08;61.17
20889;BME280;10604;51.976;7.594;2023-07-31T02:09:13;100152.63;;;24.04;60.88
20889;BME280;10604;51.976;7.594;2023-07-31T02:11:38;100142.78;;;23.75;62.27
20889;BME280;10604;51.976;7.594;2023-07-31T02:14:04;100140.25;;;23.35;63.64
20889;BME280;10604;51.976;7.594;2023-07-31T02:16:29;100140.53;;;23.61;63.30
20889;BME280;10604;51.976;7.594;2023-07-31T02:18:54;100135.13;;;23.71;63.66
20889;BME280;10604;51.976;7.594;2023-07-31T02:21:19;100135.41;;;23.39;64.17
20889;BME280;10604;51.976;7.594;2023-07-31T02:23:45;100134.47;;;24.06;63.10
20889;BME280;10604;51.976;7.594;2023-07-31T02:26:10;100129.03;;;24.25;62.92
20889;BME280;10604;51.976;7.594;2023-07-31T02:28:35;100132.03;;;23.56;64.94
20889;BME280;10604;51.976;7.594;2023-07-31T02:31:01;100135.41;;;23.39;66.22
20889;BME280;10604;51.976;7.594;2023-07-31T02:33:26;100132.00;;;23.75;65.22
20889;BME280;10604;51.976;7.594;2023-07-31T02:35:51;100136.41;;;24.23;63.50
20889;BME280;10604;51.976;7.594;2023-07-31T02:38:16;100127.47;;;23.66;65.01
20889;BME280;10604;51.976;7.594;2023-07-31T02:40:42;100127.84;;;23.91;64.39
20889;BME280;10604;51.976;7.594;2023-07-31T02:43:07;100138.72;;;24.08;64.16
20889;BME280;10604;51.976;7.594;2023-07-31T02:45:33;100135.22;;;23.89;64.31
20889;BME280;10604;51.976;7.594;2023-07-31T02:47:58;100121.59;;;24.00;63.76
20889;BME280;10604;51.976;7.594;2023-07-31T02:50:23;100134.72;;;24.22;63.35
20889;BME280;10604;51.976;7.594;2023-07-31T02:52:49;100129.75;;;23.61;64.88
20889;BME280;10604;51.976;7.594;2023-07-31T02:55:14;100129.75;;;23.61;65.53
20889;BME280;10604;51.976;7.594;2023-07-31T02:57:39;100125.50;;;23.68;65.38
20889;BME280;10604;51.976;7.594;2023-07-31T03:00:07;100127.88;;;24.28;63.69
20889;BME280;10604;51.976;7.594;2023-07-31T03:02:33;100129.31;;;23.75;65.37
20889;BME280;10604;51.976;7.594;2023-07-31T03:04:58;100120.88;;;23.98;64.23
20889;BME280;10604;51.976;7.594;2023-07-31T03:07:23;100120.69;;;23.62;65.01
20889;BME280;10604;51.976;7.594;2023-07-31T03:09:52;100120.78;;;24.17;63.94
20889;BME280;10604;51.976;7.594;2023-07-31T03:12:17;100115.28;;;24.46;62.99
20889;BME280;10604;51.976;7.594;2023-07-31T03:14:45;100123.69;;;23.50;64.61
20889;BME280;10604;51.976;7.594;2023-07-31T03:17:10;100123.34;;;24.28;63.17
20889;BME280;10604;51.976;7.594;2023-07-31T03:19:35;100119.84;;;23.52;64.99
20889;BME280;10604;51.976;7.594;2023-07-31T03:22:01;100123.09;;;24.12;63.44
20889;BME280;10604;51.976;7.594;2023-07-31T03:24:26;100126.66;;;24.03;63.24
20889;BME280;10604;51.976;7.594;2023-07-31T03:26:51;100126.06;;;23.53;64.86
20889;BME280;10604;51.976;7.594;2023-07-31T03:29:17;100116.88;;;24.02;63.47
20889;BME280;10604;51.976;7.594;2023-07-31T03:31:42;100127.84;;;23.91;63.19
20889;BME280;10604;51.976;7.594;2023-07-31T03:34:07;100112.78;;;23.98;63.44
20889;BME280;10604;51.976;7.594;2023-07-31T03:36:33;100124.63;;;23.87;64.44
20889;BME280;10604;51.976;7.594;2023-07-31T03:38:58;100111.25;;;24.32;62.89
20889;BME280;10604;51.976;7.594;2023-07-31T03:41:25;100112.13;;;23.86;64.02
20889;BME280;10604;51.976;7.594;2023-07-31T03:43:53;100105.41;;;23.15;65.55
20889;BME280;10604;51.976;7.594;2023-07-31T03:46:21;100106.63;;;23.68;64.74
20889;BME280;10604;51.976;7.594;2023-07-31T03:48:46;100116.94;;;23.83;64.32
20889;BME280;10604;51.976;7.594;2023-07-31T03:51:11;100122.41;;;23.54;64.64
20889;BME280;10604;51.976;7.594;2023-07-31T03:53:37;100119.66;;;23.83;63.69
20889;BME280;10604;51.976;7.594;2023-07-31T03:56:02;100107.09;;;23.64;63.83
20889;BME280;10604;51.976;7.594;2023-07-31T03:58:27;100110.88;;;24.17;62.96
20889;BME280;10604;51.976;7.594;2023-07-31T04:00:52;100110.03;;;23.80;63.48
20889;BME280;10604;51.976;7.594;2023-07-31T04:03:17;100106.78;;;23.67;63.56
20889;BME280;10604;51.976;7.594;2023-07-31T04:05:43;100110.63;;;23.64;63.85
20889;BME280;10604;51.976;7.594;2023-07-31T04:08:08;100106.81;;;23.57;63.81
20889;BME280;10604;51.976;7.594;2023-07-31T04:10:33;100108.13;;;24.00;62.98
20889;BME280;10604;51.976;7.594;2023-07-31T04:12:59;100108.34;;;23.40;63.38
20889;BME280;10604;51.976;7.594;2023-07-31T04:15:25;100123.31;;;23.81;63.12
20889;BME280;10604;51.976;7.594;2023-07-31T04:17:50;100117.09;;;24.18;61.78
20889;BME280;10604;51.976;7.594;2023-07-31T04:20:15;100123.78;;;23.77;62.09
20889;BME280;10604;51.976;7.594;2023-07-31T04:22:41;100118.28;;;23.59;62.81
20889;BME280;10604;51.976;7.594;2023-07-31T04:25:06;100115.75;;;23.95;61.92
20889;BME280;10604;51.976;7.594;2023-07-31T04:27:31;100117.69;;;24.12;61.75
20889;BME280;10604;51.976;7.594;2023-07-31T04:29:57;100120.84;;;23.41;63.18
20889;BME280;10604;51.976;7.594;2023-07-31T04:32:22;100111.03;;;23.69;61.69
20889;BME280;10604;51.976;7.594;2023-07-31T04:34:47;100114.38;;;23.91;62.13
20889;BME280;10604;51.976;7.594;2023-07-31T04:37:12;100118.56;;;24.03;61.55
20889;BME280;10604;51.976;7.594;2023-07-31T04:39:39;100121.13;;;23.48;62.33
20889;BME280;10604;51.976;7.594;2023-07-31T04:42:04;100109.13;;;24.36;60.66
20889;BME280;10604;51.976;7.594;2023-07-31T04:44:29;100104.06;;;24.23;60.60
20889;BME280;10604;51.976;7.594;2023-07-31T04:46:55;100115.63;;;23.50;62.26
20889;BME280;10604;51.976;7.594;2023-07-31T04:49:20;100117.72;;;24.02;60.84
20889;BME280;10604;51.976;7.594;2023-07-31T04:51:45;100110.44;;;23.75;61.17
20889;BME280;10604;51.976;7.594;2023-07-31T04:54:10;100110.19;;;23.40;62.88
20889;BME280;10604;51.976;7.594;2023-07-31T04:56:37;100117.78;;;23.93;61.42
20889;BME280;10604;51.976;7.594;2023-07-31T04:59:03;100119.50;;;23.94;60.98
20889;BME280;10604;51.976;7.594;2023-07-31T05:01:28;100116.06;;;23.92;61.55
20889;BME280;10604;51.976;7.594;2023-07-31T05:03:53;100116.94;;;23.83;61.98
20889;BME280;10604;51.976;7.594;2023-07-31T05:06:18;100122.13;;;23.28;62.63
20889;BME280;10604;51.976;7.594;2023-07-31T05:08:45;100115.84;;;23.75;62.08
20889;BME280;10604;51.976;7.594;2023-07-31T05:11:10;100123.09;;;24.12;61.38
20889;BME280;10604;51.976;7.594;2023-07-31T05:13:36;100121.06;;;23.87;61.49
20889;BME280;10604;51.976;7.594;2023-07-31T05:16:01;100116.88;;;23.55;61.34
20889;BME280;10604;51.976;7.594;2023-07-31T05:18:26;100104.38;;;24.47;60.10
20889;BME280;10604;51.976;7.594;2023-07-31T05:20:51;100108.97;;;24.65;59.15
20889;BME280;10604;51.976;7.594;2023-07-31T05:23:17;100102.38;;;24.22;60.48
20889;BME280;10604;51.976;7.594;2023-07-31T05:25:42;100108.63;;;24.13;60.27
20889;BME280;10604;51.976;7.594;2023-07-31T05:28:07;100103.41;;;24.39;60.08
20889;BME280;10604;51.976;7.594;2023-07-31T05:30:33;100101.66;;;24.47;59.38
20889;BME280;10604;51.976;7.594;2023-07-31T05:32:58;100101.25;;;24.15;59.79
20889;BME280;10604;51.976;7.594;2023-07-31T05:35:23;100092.88;;;24.45;59.62
20889;BME280;10604;51.976;7.594;2023-07-31T05:37:48;100104.44;;;24.01;60.16
20889;BME280;10604;51.976;7.594;2023-07-31T05:40:14;100081.81;;;24.66;59.59
20889;BME280;10604;51.976;7.594;2023-07-31T05:42:39;100082.69;;;24.39;60.08
20889;BME280;10604;51.976;7.594;2023-07-31T05:45:05;100077.00;;;24.42;59.57
20889;BME280;10604;51.976;7.594;2023-07-31T05:47:34;100079.28;;;24.37;59.70
20889;BME280;10604;51.976;7.594;2023-07-31T05:49:59;100077.78;;;24.52;59.56
20889;BME280;10604;51.976;7.594;2023-07-31T05:52:24;100080.91;;;24.57;59.24
20889;BME280;10604;51.976;7.594;2023-07-31T05:54:49;100085.91;;;24.70;59.27
20889;BME280;10604;51.976;7.594;2023-07-31T05:57:18;100080.75;;;24.77;58.49
20889;BME280;10604;51.976;7.594;2023-07-31T05:59:43;100075.84;;;24.90;58.45
20889;BME280;10604;51.976;7.594;2023-07-31T06:02:09;100072.03;;;24.20;59.76
20889;BME280;10604;51.976;7.594;2023-07-31T06:04:34;100079.44;;;24.08;60.15
20889;BME280;10604;51.976;7.594;2023-07-31T06:06:59;100065.09;;;25.16;57.44
20889;BME280;10604;51.976;7.594;2023-07-31T06:09:25;100059.53;;;24.82;58.51
20889;BME280;10604;51.976;7.594;2023-07-31T06:11:50;100063.56;;;23.96;60.66
20889;BME280;10604;51.976;7.594;2023-07-31T06:14:16;100057.69;;;24.82;59.12
20889;BME280;10604;51.976;7.594;2023-07-31T06:16:41;100056.81;;;24.46;60.33
20889;BME280;10604;51.976;7.594;2023-07-31T06:19:06;100057.94;;;24.26;60.39
20889;BME280;10604;51.976;7.594;2023-07-31T06:21:34;100059.59;;;24.54;60.34
20889;BME280;10604;51.976;7.594;2023-07-31T06:24:02;100062.16;;;24.56;60.68
20889;BME280;10604;51.976;7.594;2023-07-31T06:26:27;100055.69;;;23.85;62.29
20889;BME280;10604;51.976;7.594;2023-07-31T06:28:52;100053.00;;;23.85;62.07
20889;BME280;10604;51.976;7.594;2023-07-31T06:31:18;100041.44;;;24.56;61.35
20889;BME280;10604;51.976;7.594;2023-07-31T06:33:45;100039.13;;;24.97;60.44
20889;BME280;10604;51.976;7.594;2023-07-31T06:36:10;100048.34;;;24.41;60.41
20889;BME280;10604;51.976;7.594;2023-07-31T06:38:36;100041.66;;;24.63;60.47
20889;BME280;10604;51.976;7.594;2023-07-31T06:41:02;100042.28;;;24.57;61.04
20889;BME280;10604;51.976;7.594;2023-07-31T06:43:28;100044.53;;;25.41;59.23
20889;BME280;10604;51.976;7.594;2023-07-31T06:45:54;100041.50;;;24.65;60.32
20889;BME280;10604;51.976;7.594;2023-07-31T06:48:19;100056.00;;;25.34;58.93
20889;BME280;10604;51.976;7.594;2023-07-31T06:50:47;100046.53;;;24.95;58.88
20889;BME280;10604;51.976;7.594;2023-07-31T06:53:13;100048.13;;;24.88;59.54
20889;BME280;10604;51.976;7.594;2023-07-31T06:58:34;100052.34;;;24.73;60.78
20889;BME280;10604;51.976;7.594;2023-07-31T07:00:59;100064.13;;;24.99;60.50
20889;BME280;10604;51.976;7.594;2023-07-31T07:03:25;100071.53;;;24.97;61.03
20889;BME280;10604;51.976;7.594;2023-07-31T07:05:50;100068.59;;;25.08;60.68
20889;BME280;10604;51.976;7.594;2023-07-31T07:08:15;100060.81;;;24.42;62.94
20889;BME280;10604;51.976;7.594;2023-07-31T07:10:41;100057.06;;;24.53;62.90
20889;BME280;10604;51.976;7.594;2023-07-31T07:13:07;100048.31;;;24.14;63.93
20889;BME280;10604;51.976;7.594;2023-07-31T07:15:32;100057.13;;;24.43;63.50
20889;BME280;10604;51.976;7.594;2023-07-31T07:17:57;100053.47;;;23.70;65.60
20889;BME280;10604;51.976;7.594;2023-07-31T07:20:22;100057.75;;;23.63;66.15
20889;BME280;10604;51.976;7.594;2023-07-31T07:22:48;100040.53;;;24.11;65.54
20889;BME280;10604;51.976;7.594;2023-07-31T07:25:13;100041.09;;;24.42;64.35
20889;BME280;10604;51.976;7.594;2023-07-31T07:27:38;100039.06;;;24.16;65.18
20889;BME280;10604;51.976;7.594;2023-07-31T07:30:04;100041.91;;;24.70;64.14
20889;BME280;10604;51.976;7.594;2023-07-31T07:32:29;100043.28;;;24.74;63.74
20889;BME280;10604;51.976;7.594;2023-07-31T07:34:55;100043.06;;;24.85;63.21
20889;BME280;10604;51.976;7.594;2023-07-31T07:37:20;100034.00;;;24.58;64.45
20889;BME280;10604;51.976;7.594;2023-07-31T07:39:45;100030.47;;;25.11;63.23
20889;BME280;10604;51.976;7.594;2023-07-31T07:42:11;100030.78;;;25.08;62.90
20889;BME280;10604;51.976;7.594;2023-07-31T07:44:36;100038.50;;;25.03;62.88
20889;BME280;10604;51.976;7.594;2023-07-31T07:47:02;100025.78;;;24.78;64.15
20889;BME280;10604;51.976;7.594;2023-07-31T07:49:27;100038.16;;;25.42;62.57
20889;BME280;10604;51.976;7.594;2023-07-31T07:51:53;100024.16;;;24.85;63.34
20889;BME280;10604;51.976;7.594;2023-07-31T07:54:18;100024.31;;;24.66;64.25
20889;BME280;10604;51.976;7.594;2023-07-31T07:56:46;100011.50;;;24.68;64.72
20889;BME280;10604;51.976;7.594;2023-07-31T07:59:11;100006.03;;;25.13;63.59
20889;BME280;10604;51.976;7.594;2023-07-31T08:01:36;100001.72;;;24.84;64.45
20889;BME280;10604;51.976;7.594;2023-07-31T08:04:01;100005.59;;;25.00;63.97
20889;BME280;10604;51.976;7.594;2023-07-31T08:06:27;100009.09;;;25.44;63.19
20889;BME280;10604;51.976;7.594;2023-07-31T08:08:52;100009.97;;;24.83;64.72
20889;BME280;10604;51.976;7.594;2023-07-31T08:11:23;99997.25;;;25.36;63.60
20889;BME280;10604;51.976;7.594;2023-07-31T08:13:49;99991.06;;;25.70;62.57
20889;BME280;10604;51.976;7.594;2023-07-31T08:16:14;99986.53;;;25.53;62.61
20889;BME280;10604;51.976;7.594;2023-07-31T08:18:40;99981.78;;;25.47;62.67
20889;BME280;10604;51.976;7.594;2023-07-31T08:21:05;99990.34;;;24.90;63.60
20889;BME280;10604;51.976;7.594;2023-07-31T08:23:31;99982.00;;;24.66;65.04
20889;BME280;10604;51.976;7.594;2023-07-31T08:25:56;99975.31;;;25.40;64.03
20889;BME280;10604;51.976;7.594;2023-07-31T08:28:21;99980.63;;;25.23;63.77
20889;BME280;10604;51.976;7.594;2023-07-31T08:30:47;99975.72;;;25.53;62.69
20889;BME280;10604;51.976;7.594;2023-07-31T08:33:12;99979.78;;;25.49;62.40
20889;BME280;10604;51.976;7.594;2023-07-31T08:35:37;99981.78;;;25.47;63.07
20889;BME280;10604;51.976;7.594;2023-07-31T08:38:03;99979.31;;;25.27;62.88
20889;BME280;10604;51.976;7.594;2023-07-31T08:40:28;99971.66;;;24.26;65.73
20889;BME280;10604;51.976;7.594;2023-07-31T08:42:54;99968.75;;;25.16;63.35
20889;BME280;10604;51.976;7.594;2023-07-31T08:45:21;99967.25;;;25.73;62.44
20889;BME280;10604;51.976;7.594;2023-07-31T08:47:48;99962.19;;;24.93;64.26
20889;BME280;10604;51.976;7.594;2023-07-31T08:50:14;99962.00;;;25.12;64.53
20889;BME280;10604;51.976;7.594;2023-07-31T08:52:40;99963.56;;;24.26;65.77
20889;BME280;10604;51.976;7.594;2023-07-31T08:55:05;99961.50;;;24.55;65.53
20889;BME280;10604;51.976;7.594;2023-07-31T08:57:31;99962.19;;;25.70;63.18
20889;BME280;10604;51.976;7.594;2023-07-31T09:00:00;99957.09;;;25.16;63.82
20889;BME280;10604;51.976;7.594;2023-07-31T09:02:25;99962.50;;;24.90;64.63
20889;BME280;10604;51.976;7.594;2023-07-31T09:04:55;99964.91;;;24.93;64.59
20889;BME280;10604;51.976;7.594;2023-07-31T09:07:20;99963.94;;;24.84;64.62
20889;BME280;10604;51.976;7.594;2023-07-31T09:09:46;99963.34;;;25.68;63.07
20889;BME280;10604;51.976;7.594;2023-07-31T09:12:11;99964.47;;;24.88;63.84
20889;BME280;10604;51.976;7.594;2023-07-31T09:14:36;99960.28;;;25.11;63.10
20889;BME280;10604;51.976;7.594;2023-07-31T09:17:03;99977.13;;;25.05;63.37
20889;BME280;10604;51.976;7.594;2023-07-31T09:19:32;99965.13;;;25.00;63.98
20889;BME280;10604;51.976;7.594;2023-07-31T09:21:59;99969.69;;;24.64;64.62
20889;BME280;10604;51.976;7.594;2023-07-31T09:24:31;99970.47;;;25.17;64.06
20889;BME280;10604;51.976;7.594;2023-07-31T09:26:57;99962.97;;;24.68;65.00
20889;BME280;10604;51.976;7.594;2023-07-31T09:29:27;99950.84;;;25.67;62.68
20889;BME280;10604;51.976;7.594;2023-07-31T09:31:52;99966.16;;;24.89;63.61
20889;BME280;10604;51.976;7.594;2023-07-31T09:34:18;99958.56;;;24.84;63.87
20889;BME280;10604;51.976;7.594;2023-07-31T09:36:44;99955.63;;;24.95;64.73
20889;BME280;10604;51.976;7.594;2023-07-31T09:39:10;99969.88;;;24.88;64.46
20889;BME280;10604;51.976;7.594;2023-07-31T09:41:36;99963.47;;;24.89;63.70
20889;BME280;10604;51.976;7.594;2023-07-31T09:44:03;99957.94;;;24.73;63.92
20889;BME280;10604;51.976;7.594;2023-07-31T09:46:28;99959.06;;;24.88;64.52
20889;BME280;10604;51.976;7.594;2023-07-31T09:49:02;99954.03;;;25.11;63.68
20889;BME280;10604;51.976;7.594;2023-07-31T09:51:28;99953.72;;;25.40;62.56
20889;BME280;10604;51.976;7.594;2023-07-31T09:53:56;99953.84;;;25.04;62.84
20889;BME280;10604;51.976;7.594;2023-07-31T09:56:21;99965.06;;;24.91;63.80
20889;BME280;10604;51.976;7.594;2023-07-31T09:58:47;99943.34;;;25.27;63.19
20889;BME280;10604;51.976;7.594;2023-07-31T10:01:13;99934.16;;;25.80;62.51
20889;BME280;10604;51.976;7.594;2023-07-31T10:03:38;99937.41;;;25.23;62.74
20889;BME280;10604;51.976;7.594;2023-07-31T10:06:04;99942.50;;;25.26;62.54
20889;BME280;10604;51.976;7.594;2023-07-31T10:08:32;99940.88;;;25.67;61.71
20889;BME280;10604;51.976;7.594;2023-07-31T10:10:59;99948.22;;;25.49;62.14
20889;BME280;10604;51.976;7.594;2023-07-31T10:13:25;99941.00;;;25.58;61.25
20889;BME280;10604;51.976;7.594;2023-07-31T10:15:52;99935.59;;;25.58;61.72
20889;BME280;10604;51.976;7.594;2023-07-31T10:18:18;99940.16;;;25.99;60.71
20889;BME280;10604;51.976;7.594;2023-07-31T10:20:45;99942.97;;;26.40;59.89
20889;BME280;10604;51.976;7.594;2023-07-31T10:23:11;99944.56;;;26.00;61.01
20889;BME280;10604;51.976;7.594;2023-07-31T10:25:38;99928.50;;;25.57;62.03
20889;BME280;10604;51.976;7.594;2023-07-31T10:28:03;99940.97;;;25.50;62.14
20889;BME280;10604;51.976;7.594;2023-07-31T10:30:29;99944.16;;;25.87;61.13
20889;BME280;10604;51.976;7.594;2023-07-31T10:32:55;99941.19;;;24.87;63.09
20889;BME280;10604;51.976;7.594;2023-07-31T10:35:21;99932.72;;;25.25;62.23
20889;BME280;10604;51.976;7.594;2023-07-31T10:37:49;99926.47;;;25.25;63.16
20889;BME280;10604;51.976;7.594;2023-07-31T10:40:19;99939.31;;;25.57;61.28
20889;BME280;10604;51.976;7.594;2023-07-31T10:42:48;99940.91;;;25.42;62.60
20889;BME280;10604;51.976;7.594;2023-07-31T10:45:14;99946.84;;;24.76;63.42
20889;BME280;10604;51.976;7.594;2023-07-31T10:47:48;99938.69;;;24.68;63.57
20889;BME280;10604;51.976;7.594;2023-07-31T10:52:44;99935.19;;;24.75;63.57
20889;BME280;10604;51.976;7.594;2023-07-31T10:55:28;99933.28;;;25.11;63.59
20889;BME280;10604;51.976;7.594;2023-07-31T10:57:54;99925.00;;;25.64;62.54
20889;BME280;10604;51.976;7.594;2023-07-31T11:03:08;99929.78;;;26.45;60.34
20889;BME280;10604;51.976;7.594;2023-07-31T11:10:41;99917.81;;;25.47;61.83
20889;BME280;10604;51.976;7.594;2023-07-31T11:13:07;99913.38;;;25.64;61.34
20889;BME280;10604;51.976;7.594;2023-07-31T11:15:35;99921.88;;;25.85;61.39
20889;BME280;10604;51.976;7.594;2023-07-31T11:18:03;99909.00;;;25.71;61.57
20889;BME280;10604;51.976;7.594;2023-07-31T11:20:30;99912.31;;;25.65;62.06
20889;BME280;10604;51.976;7.594;2023-07-31T11:22:58;99911.97;;;25.60;62.37
20889;BME280;10604;51.976;7.594;2023-07-31T11:25:23;99922.75;;;25.26;63.10
20889;BME280;10604;51.976;7.594;2023-07-31T11:27:48;99912.00;;;25.08;64.00
20889;BME280;10604;51.976;7.594;2023-07-31T11:30:18;99910.59;;;24.96;64.78
20889;BME280;10604;51.976;7.594;2023-07-31T11:32:44;99915.56;;;24.65;65.45
20889;BME280;10604;51.976;7.594;2023-07-31T11:35:12;99919.09;;;25.09;65.06
20889;BME280;10604;51.976;7.594;2023-07-31T11:37:40;99918.31;;;25.51;64.10
20889;BME280;10604;51.976;7.594;2023-07-31T11:40:06;99915.69;;;24.81;64.73
20889;BME280;10604;51.976;7.594;2023-07-31T11:42:32;99911.50;;;25.05;64.81
20889;BME280;10604;51.976;7.594;2023-07-31T11:44:57;99899.91;;;25.12;64.94
20889;BME280;10604;51.976;7.594;2023-07-31T11:47:22;99919.91;;;24.23;66.64
20889;BME280;10604;51.976;7.594;2023-07-31T11:49:53;99902.09;;;25.51;64.41
20889;BME280;10604;51.976;7.594;2023-07-31T11:52:19;99904.09;;;24.89;65.13
20889;BME280;10604;51.976;7.594;2023-07-31T11:54:45;99903.97;;;25.16;64.43
20889;BME280;10604;51.976;7.594;2023-07-31T11:57:11;99899.69;;;24.88;65.16
20889;BME280;10604;51.976;7.594;2023-07-31T11:59:37;99898.56;;;25.84;63.37
20889;BME280;10604;51.976;7.594;2023-07-31T12:02:03;99889.66;;;25.58;63.68
20889;BME280;10604;51.976;7.594;2023-07-31T12:04:28;99890.19;;;25.27;63.56
20889;BME280;10604;51.976;7.594;2023-07-31T12:06:54;99896.56;;;25.18;64.05
20889;BME280;10604;51.976;7.594;2023-07-31T12:09:20;99892.50;;;25.48;63.79
20889;BME280;10604;51.976;7.594;2023-07-31T12:11:48;99906.06;;;25.30;63.77
20889;BME280;10604;51.976;7.594;2023-07-31T12:14:29;99892.44;;;25.06;63.87
20889;BME280;10604;51.976;7.594;2023-07-31T12:16:58;99899.34;;;26.75;60.53
20889;BME280;10604;51.976;7.594;2023-07-31T12:19:27;99886.50;;;26.77;60.18
20889;BME280;10604;51.976;7.594;2023-07-31T12:22:10;99888.69;;;26.25;60.40
20889;BME280;10604;51.976;7.594;2023-07-31T12:24:36;99896.47;;;26.36;60.13
20889;BME280;10604;51.976;7.594;2023-07-31T12:27:08;99885.53;;;27.42;59.19
20889;BME280;10604;51.976;7.594;2023-07-31T12:29:34;99891.25;;;26.27;60.71
20889;BME280;10604;51.976;7.594;2023-07-31T12:32:00;99891.91;;;26.53;59.62
20889;BME280;10604;51.976;7.594;2023-07-31T12:34:28;99884.97;;;26.67;60.21
20889;BME280;10604;51.976;7.594;2023-07-31T12:36:54;99891.22;;;26.51;60.20
20889;BME280;10604;51.976;7.594;2023-07-31T12:39:19;99884.72;;;25.95;60.08
20889;BME280;10604;51.976;7.594;2023-07-31T12:41:44;99877.00;;;26.65;59.36
20889;BME280;10604;51.976;7.594;2023-07-31T12:44:10;99868.75;;;26.91;58.99
20889;BME280;10604;51.976;7.594;2023-07-31T12:46:35;99872.56;;;27.21;57.91
20889;BME280;10604;51.976;7.594;2023-07-31T12:49:00;99876.09;;;27.69;56.42
20889;BME280;10604;51.976;7.594;2023-07-31T12:51:26;99877.66;;;27.63;56.87
20889;BME280;10604;51.976;7.594;2023-07-31T12:53:51;99869.91;;;27.05;57.16
20889;BME280;10604;51.976;7.594;2023-07-31T12:56:16;99872.75;;;27.50;57.58
20889;BME280;10604;51.976;7.594;2023-07-31T12:58:42;99886.84;;;26.58;58.63
20889;BME280;10604;51.976;7.594;2023-07-31T13:01:08;99873.63;;;26.79;58.79
20889;BME280;10604;51.976;7.594;2023-07-31T13:03:33;99866.78;;;27.24;58.26
20889;BME280;10604;51.976;7.594;2023-07-31T13:05:58;99871.13;;;26.62;58.59
20889;BME280;10604;51.976;7.594;2023-07-31T13:08:24;99873.50;;;26.57;58.59